Time;durP1;ratioP1;P1;durP2;ratioP2;P2;SDS_P1;SDS_P2;PMS_P1;PMS_P2;Temp;Humidity;BMP_temperature;BMP_pressure;BME280_temperature;BME280_humidity;BME280_pressure;Samples;Min_cycle;Max_cycle;Signal;HPM_P1;HPM_P2
2023/03/15 00:01:55;;;;;;;9.02;2.40;;;2.80;99.90;;;;;;5044476;28;20033;-48
2023/03/15 00:04:23;;;;;;;12.27;2.20;;;2.80;99.90;;;;;;5046313;28;20037;-47
2023/03/15 00:06:49;;;;;;;3.65;1.50;;;2.70;99.90;;;;;;5043718;28;20428;-47
2023/03/15 00:09:15;;;;;;;4.22;1.48;;;2.70;99.90;;;;;;5041160;28;20468;-48
2023/03/15 00:11:41;;;;;;;7.97;1.73;;;2.70;99.90;;;;;;5044433;28;20124;-47
2023/03/15 00:14:06;;;;;;;8.10;2.63;;;2.70;99.90;;;;;;5046203;28;20319;-47
2023/03/15 00:16:32;;;;;;;7.90;1.55;;;2.70;99.90;;;;;;5048454;28;20076;-46
2023/03/15 00:18:58;;;;;;;3.10;1.67;;;2.60;99.90;;;;;;5033012;28;20052;-48
2023/03/15 00:21:23;;;;;;;5.27;2.20;;;2.60;99.90;;;;;;5043250;28;20036;-47
2023/03/15 00:23:49;;;;;;;9.03;2.50;;;2.60;99.90;;;;;;5034545;28;20033;-48
2023/03/15 00:26:16;;;;;;;9.23;2.45;;;2.60;99.90;;;;;;5037096;28;20060;-48
2023/03/15 00:28:42;;;;;;;5.90;2.28;;;2.60;99.90;;;;;;5030752;28;20116;-48
2023/03/15 00:31:14;;;;;;;11.95;2.65;;;2.60;99.90;;;;;;5033532;28;20479;-48
2023/03/15 00:33:40;;;;;;;5.95;2.47;;;2.50;99.90;;;;;;5046692;28;20033;-48
2023/03/15 00:36:08;;;;;;;5.05;2.67;;;2.50;99.90;;;;;;5044359;28;21492;-48
2023/03/15 00:38:35;;;;;;;11.15;2.50;;;2.50;99.90;;;;;;5041855;28;20044;-48
2023/03/15 00:41:21;;;;;;;5.55;2.60;;;2.50;99.90;;;;;;5045674;28;20411;-47
2023/03/15 00:43:47;;;;;;;9.02;2.97;;;2.50;99.90;;;;;;5045958;28;20083;-47
2023/03/15 00:46:13;;;;;;;5.35;2.78;;;2.50;99.90;;;;;;5045992;28;20073;-47
2023/03/15 00:48:39;;;;;;;;;;;2.50;99.90;;;;;;5044189;28;20099;-48
2023/03/15 00:51:11;;;;;;;4.72;1.77;;;2.50;99.90;;;;;;5040070;28;19933;-48
2023/03/15 00:53:38;;;;;;;8.57;1.98;;;2.50;99.90;;;;;;5034039;28;20049;-48
2023/03/15 00:56:09;;;;;;;7.72;1.65;;;2.50;99.90;;;;;;5030714;28;20037;-48
2023/03/15 00:58:35;;;;;;;4.72;1.98;;;2.50;99.90;;;;;;5029073;28;20040;-47
2023/03/15 01:01:24;;;;;;;3.70;1.35;;;2.50;99.90;;;;;;5033206;28;20264;-48
2023/03/15 01:03:49;;;;;;;2.67;1.13;;;2.50;99.90;;;;;;5042977;28;20112;-49
2023/03/15 01:06:21;;;;;;;6.73;1.43;;;2.50;99.90;;;;;;5044575;28;20127;-48
2023/03/15 01:08:47;;;;;;;4.75;1.38;;;2.50;99.90;;;;;;5043706;28;20045;-47
2023/03/15 01:11:23;;;;;;;6.50;2.03;;;2.50;99.90;;;;;;5031711;28;20049;-48
2023/03/15 01:13:49;;;;;;;2.30;1.25;;;2.50;99.90;;;;;;5033550;28;20091;-48
2023/03/15 01:16:15;;;;;;;5.82;1.08;;;2.50;99.90;;;;;;5033142;28;20091;-48
2023/03/15 01:18:41;;;;;;;3.13;1.37;;;2.50;99.90;;;;;;5032728;28;20493;-48
2023/03/15 01:21:12;;;;;;;4.85;0.88;;;2.50;99.90;;;;;;5038866;28;20127;-48
2023/03/15 01:23:38;;;;;;;4.28;1.30;;;2.50;99.90;;;;;;5043883;28;20041;-49
2023/03/15 01:26:06;;;;;;;5.07;1.20;;;2.40;99.90;;;;;;5041992;28;20040;-46
2023/03/15 01:28:31;;;;;;;5.28;0.85;;;2.50;99.90;;;;;;5037744;28;20041;-48
2023/03/15 01:30:57;;;;;;;8.23;1.10;;;2.40;99.90;;;;;;5040798;28;20047;-47
2023/03/15 01:33:23;;;;;;;5.78;0.70;;;2.40;99.90;;;;;;5045536;28;20040;-48
2023/03/15 01:36:01;;;;;;;2.03;0.80;;;2.40;99.90;;;;;;5045955;28;20410;-47
2023/03/15 01:38:27;;;;;;;3.30;0.75;;;2.40;99.90;;;;;;5044436;28;20059;-48
2023/03/15 01:40:52;;;;;;;5.15;0.80;;;2.30;99.90;;;;;;5045712;28;20250;-47
2023/03/15 01:43:23;;;;;;;4.07;0.97;;;2.30;99.90;;;;;;5046479;28;20045;-47
2023/03/15 01:45:58;;;;;;;1.92;0.50;;;2.30;99.90;;;;;;5040682;28;20405;-50
2023/03/15 01:48:28;;;;;;;2.70;0.70;;;2.30;99.90;;;;;;5032624;28;20045;-48
2023/03/15 01:50:54;;;;;;;4.15;1.33;;;2.30;99.90;;;;;;5031540;28;20092;-46
2023/03/15 01:53:21;;;;;;;;;;;2.30;99.90;;;;;;5030523;28;20041;-48
2023/03/15 01:55:47;;;;;;;2.40;1.02;;;2.40;99.90;;;;;;5030327;28;19979;-48
2023/03/15 01:58:13;;;;;;;5.23;0.73;;;2.40;99.90;;;;;;5029843;28;20795;-48
2023/03/15 02:00:39;;;;;;;3.00;0.98;;;2.40;99.90;;;;;;5032547;28;20033;-48
2023/03/15 02:03:15;;;;;;;4.47;0.90;;;2.40;99.90;;;;;;5036934;28;20025;-48
2023/03/15 02:05:45;;;;;;;9.57;1.13;;;2.50;99.90;;;;;;5049174;28;20589;-48
2023/03/15 02:08:14;;;;;;;5.07;1.15;;;2.50;99.90;;;;;;5045753;28;20037;-48
2023/03/15 02:10:46;;;;;;;2.58;0.70;;;2.50;99.90;;;;;;5049246;28;20033;-48
2023/03/15 02:13:16;;;;;;;5.22;1.45;;;2.50;99.90;;;;;;5047501;28;20045;-46
2023/03/15 02:15:45;;;;;;;12.07;1.20;;;2.50;99.90;;;;;;5040845;28;20500;-47
2023/03/15 02:18:12;;;;;;;3.90;1.08;;;2.40;99.90;;;;;;5045616;28;20398;-47
2023/03/15 02:21:12;;;;;;;2.67;0.70;;;2.40;99.90;;;;;;5046717;28;20033;-48
2023/03/15 02:23:37;;;;;;;11.32;1.02;;;2.40;99.90;;;;;;5043546;28;20111;-48
2023/03/15 02:26:27;;;;;;;3.80;0.67;;;2.30;99.90;;;;;;5046590;28;20125;-47
2023/03/15 02:28:54;;;;;;;7.35;0.82;;;2.30;99.90;;;;;;5036520;28;20033;-48
2023/03/15 02:31:20;;;;;;;;;;;2.20;99.90;;;;;;5039087;28;20037;-48
2023/03/15 02:33:49;;;;;;;2.78;0.52;;;2.10;99.90;;;;;;5046308;28;20423;-48
2023/03/15 02:36:21;;;;;;;5.57;0.70;;;2.10;99.90;;;;;;5045649;28;20183;-47
2023/03/15 02:38:47;;;;;;;5.47;0.77;;;2.00;99.90;;;;;;5044564;28;20394;-48
2023/03/15 02:41:23;;;;;;;6.57;0.95;;;2.00;99.90;;;;;;5046680;28;20040;-48
2023/03/15 02:43:52;;;;;;;6.40;1.60;;;2.00;99.90;;;;;;5038536;28;20526;-47
2023/03/15 02:46:18;;;;;;;1.88;0.60;;;1.90;99.90;;;;;;5044396;28;20070;-46
2023/03/15 02:48:45;;;;;;;4.03;1.05;;;1.90;99.90;;;;;;5046768;28;20049;-47
2023/03/15 02:51:20;;;;;;;6.53;1.10;;;1.80;99.90;;;;;;5046579;28;20080;-47
2023/03/15 02:53:46;;;;;;;8.48;1.35;;;1.80;99.90;;;;;;5037468;28;20418;-47
2023/03/15 02:56:13;;;;;;;6.23;0.90;;;1.80;99.90;;;;;;5031922;28;20045;-47
2023/03/15 02:58:38;;;;;;;2.35;0.73;;;1.80;99.90;;;;;;5032739;28;20040;-46
2023/03/15 03:01:04;;;;;;;5.17;0.90;;;1.80;99.90;;;;;;5037818;28;20403;-48
2023/03/15 03:03:29;;;;;;;9.70;1.30;;;1.80;99.90;;;;;;5031138;28;20410;-46
2023/03/15 03:05:55;;;;;;;3.30;0.60;;;1.70;99.90;;;;;;5034038;28;20044;-48
2023/03/15 03:08:21;;;;;;;4.30;1.37;;;1.70;99.90;;;;;;5039237;28;20517;-47
2023/03/15 03:10:46;;;;;;;6.77;1.00;;;1.70;99.90;;;;;;5047702;28;20041;-47
2023/03/15 03:13:12;;;;;;;3.53;0.53;;;1.70;99.90;;;;;;5047165;28;20114;-48
2023/03/15 03:15:37;;;;;;;4.20;0.70;;;1.70;99.90;;;;;;5038795;28;20037;-48
2023/03/15 03:18:03;;;;;;;5.20;0.50;;;1.70;99.90;;;;;;5038316;28;20030;-46
2023/03/15 03:20:29;;;;;;;4.30;1.37;;;1.70;99.90;;;;;;5035631;28;20335;-47
2023/03/15 03:22:54;;;;;;;6.47;1.30;;;1.70;99.90;;;;;;5033335;28;20037;-48
2023/03/15 03:25:20;;;;;;;6.50;0.70;;;1.60;99.90;;;;;;5032580;28;20283;-47
2023/03/15 03:27:46;;;;;;;10.70;0.82;;;1.60;99.90;;;;;;5035068;28;20037;-48
2023/03/15 03:30:13;;;;;;;9.23;0.80;;;1.60;99.90;;;;;;5047663;28;20056;-48
2023/03/15 03:32:40;;;;;;;7.38;0.95;;;1.60;99.90;;;;;;5033982;28;20040;-48
2023/03/15 03:35:06;;;;;;;11.45;0.93;;;1.60;99.90;;;;;;5042121;28;20113;-48
2023/03/15 03:37:32;;;;;;;2.65;0.70;;;1.50;99.90;;;;;;5034580;28;20053;-48
2023/03/15 03:39:57;;;;;;;5.38;0.80;;;1.50;99.90;;;;;;5044663;28;20032;-48
2023/03/15 03:42:23;;;;;;;11.07;0.60;;;1.50;99.90;;;;;;5040471;28;20056;-48
2023/03/15 03:44:49;;;;;;;5.63;1.48;;;1.50;99.90;;;;;;5043588;28;20494;-48
2023/03/15 03:47:15;;;;;;;7.53;1.15;;;1.40;99.90;;;;;;5033545;28;20052;-48
2023/03/15 03:49:40;;;;;;;5.27;0.90;;;1.40;99.90;;;;;;5037082;28;20032;-48
2023/03/15 03:52:06;;;;;;;2.70;0.60;;;1.40;99.90;;;;;;5044034;28;20041;-47
2023/03/15 03:54:32;;;;;;;6.70;0.70;;;1.40;99.90;;;;;;5046068;28;20108;-48
2023/03/15 03:56:57;;;;;;;9.43;0.83;;;1.40;99.90;;;;;;5046354;28;20099;-47
2023/03/15 03:59:23;;;;;;;5.22;0.77;;;1.40;99.90;;;;;;5030878;28;20040;-47
2023/03/15 04:01:50;;;;;;;3.70;0.60;;;1.30;99.90;;;;;;5034135;28;20045;-47
2023/03/15 04:04:15;;;;;;;10.20;0.98;;;1.30;99.90;;;;;;5043751;28;20080;-47
2023/03/15 04:06:44;;;;;;;5.50;0.60;;;1.20;99.90;;;;;;5034364;28;20069;-48
2023/03/15 04:09:11;;;;;;;6.30;1.13;;;1.20;99.90;;;;;;5035735;28;20117;-48
2023/03/15 04:11:41;;;;;;;5.10;1.35;;;1.20;99.90;;;;;;5040359;28;20593;-48
2023/03/15 04:14:08;;;;;;;5.60;0.70;;;1.20;99.90;;;;;;5031003;28;20088;-47
2023/03/15 04:16:33;;;;;;;3.95;0.70;;;1.20;99.90;;;;;;5031632;28;20073;-47
2023/03/15 04:18:59;;;;;;;5.30;1.23;;;1.20;99.90;;;;;;5031197;28;20068;-48
2023/03/15 04:21:24;;;;;;;5.10;0.50;;;1.20;99.90;;;;;;5032969;28;20033;-47
2023/03/15 04:23:50;;;;;;;6.33;1.07;;;1.10;99.90;;;;;;5029943;28;20491;-48
2023/03/15 04:26:15;;;;;;;6.17;1.07;;;1.10;99.90;;;;;;5031461;28;20056;-47
2023/03/15 04:28:42;;;;;;;4.73;0.77;;;1.10;99.90;;;;;;5030962;28;20041;-48
2023/03/15 04:31:09;;;;;;;5.32;0.80;;;1.00;99.90;;;;;;5032990;28;20053;-47
2023/03/15 04:33:35;;;;;;;6.13;0.50;;;1.00;99.90;;;;;;5031270;28;20040;-48
2023/03/15 04:36:01;;;;;;;6.28;0.93;;;1.00;99.90;;;;;;5034189;28;20029;-48
2023/03/15 04:38:27;;;;;;;3.97;0.75;;;0.90;99.90;;;;;;5032082;28;20040;-48
2023/03/15 04:40:56;;;;;;;3.93;1.40;;;0.90;99.90;;;;;;5032030;28;20045;-48
2023/03/15 04:43:23;;;;;;;11.18;1.70;;;0.90;99.90;;;;;;5044632;28;20276;-48
2023/03/15 04:45:50;;;;;;;6.40;0.70;;;0.90;99.90;;;;;;5040382;28;20107;-48
2023/03/15 04:48:16;;;;;;;2.38;0.80;;;0.90;99.90;;;;;;5041662;28;20045;-48
2023/03/15 04:50:41;;;;;;;7.63;1.17;;;0.90;99.90;;;;;;5046714;28;20552;-47
2023/03/15 04:53:07;;;;;;;6.03;0.90;;;0.90;99.90;;;;;;5047448;28;20037;-48
2023/03/15 04:55:32;;;;;;;4.73;0.90;;;0.90;99.90;;;;;;5047715;28;20061;-46
2023/03/15 04:57:58;;;;;;;4.10;0.70;;;0.90;99.90;;;;;;5042866;28;20033;-48
2023/03/15 05:00:23;;;;;;;6.30;1.10;;;1.00;99.90;;;;;;5035826;28;20041;-47
2023/03/15 05:02:53;;;;;;;4.10;0.63;;;1.00;99.90;;;;;;5032902;28;20064;-48
2023/03/15 05:05:22;;;;;;;7.93;0.90;;;1.00;99.90;;;;;;5042331;28;20041;-47
2023/03/15 05:07:47;;;;;;;9.52;0.90;;;1.00;99.90;;;;;;5031241;28;20047;-46
2023/03/15 05:10:13;;;;;;;4.77;0.80;;;1.00;99.90;;;;;;5031767;28;20053;-48
2023/03/15 05:12:39;;;;;;;5.23;0.50;;;1.00;99.90;;;;;;5033380;28;20042;-48
2023/03/15 05:15:05;;;;;;;4.70;0.83;;;1.00;99.90;;;;;;5031693;28;20501;-48
2023/03/15 05:17:32;;;;;;;3.70;0.70;;;1.10;99.90;;;;;;5041190;28;20036;-47
2023/03/15 05:20:00;;;;;;;7.70;0.70;;;1.10;99.90;;;;;;5045877;28;20033;-48
2023/03/15 05:22:26;;;;;;;3.75;0.73;;;1.10;99.90;;;;;;5044620;28;20033;-47
2023/03/15 05:24:54;;;;;;;9.27;1.48;;;1.10;99.90;;;;;;5043917;28;20509;-47
2023/03/15 05:27:20;;;;;;;3.78;0.95;;;1.10;99.90;;;;;;5031626;28;20703;-50
2023/03/15 05:29:45;;;;;;;7.53;1.03;;;1.10;99.90;;;;;;5040701;28;20040;-47
2023/03/15 05:32:11;;;;;;;9.13;1.00;;;1.10;99.90;;;;;;5036273;28;20445;-47
2023/03/15 05:34:37;;;;;;;3.20;0.60;;;1.20;99.90;;;;;;5031545;28;20055;-47
2023/03/15 05:37:02;;;;;;;11.17;0.90;;;1.10;99.90;;;;;;5032608;28;20153;-47
2023/03/15 05:39:28;;;;;;;3.40;0.50;;;1.10;99.90;;;;;;5033960;28;20519;-47
2023/03/15 05:41:54;;;;;;;9.02;1.13;;;1.10;99.90;;;;;;5034280;28;20126;-46
2023/03/15 05:44:19;;;;;;;4.30;1.00;;;1.10;99.90;;;;;;5035497;28;20092;-48
2023/03/15 05:46:45;;;;;;;5.20;0.77;;;1.00;99.90;;;;;;5037702;28;20048;-48
2023/03/15 05:49:11;;;;;;;6.10;1.43;;;1.00;99.90;;;;;;5045597;28;20421;-48
2023/03/15 05:51:36;;;;;;;2.23;0.50;;;1.00;99.90;;;;;;5047505;28;20085;-48
2023/03/15 05:54:02;;;;;;;2.97;0.63;;;0.90;99.90;;;;;;5040855;28;20037;-48
2023/03/15 05:56:27;;;;;;;14.43;0.70;;;0.90;99.90;;;;;;5038966;28;20449;-48
2023/03/15 05:58:53;;;;;;;4.47;1.07;;;0.90;99.90;;;;;;5037634;28;20585;-48
2023/03/15 06:01:18;;;;;;;6.30;0.77;;;0.90;99.90;;;;;;5037805;28;20037;-47
2023/03/15 06:03:44;;;;;;;2.13;0.50;;;0.80;99.90;;;;;;5039566;28;20037;-48
2023/03/15 06:06:10;;;;;;;7.63;0.60;;;0.90;99.90;;;;;;5047727;28;20514;-47
2023/03/15 06:08:35;;;;;;;4.47;0.70;;;0.90;99.90;;;;;;5042432;28;20171;-48
2023/03/15 06:11:01;;;;;;;7.00;1.10;;;1.00;99.90;;;;;;5046131;28;20056;-48
2023/03/15 06:13:26;;;;;;;4.40;0.70;;;1.10;99.90;;;;;;5049656;28;20029;-48
2023/03/15 06:15:52;;;;;;;5.55;0.80;;;1.30;99.90;;;;;;5045506;28;20037;-48
2023/03/15 06:18:18;;;;;;;9.50;1.90;;;1.50;99.90;;;;;;5047728;28;20111;-48
2023/03/15 06:20:43;;;;;;;4.57;0.60;;;1.70;99.90;;;;;;5038849;28;20048;-49
2023/03/15 06:23:09;;;;;;;6.23;0.90;;;2.00;99.90;;;;;;5037239;28;20665;-47
2023/03/15 06:25:35;;;;;;;6.73;1.07;;;2.30;99.90;;;;;;5036738;28;20044;-46
2023/03/15 06:28:01;;;;;;;7.53;0.98;;;2.60;99.90;;;;;;5036515;28;20049;-48
2023/03/15 06:30:27;;;;;;;6.53;1.13;;;2.80;99.90;;;;;;5050543;28;20048;-48
2023/03/15 06:32:53;;;;;;;5.63;0.90;;;3.10;99.90;;;;;;5047104;28;20029;-48
2023/03/15 06:35:18;;;;;;;7.07;0.65;;;3.10;99.90;;;;;;5045212;28;20518;-47
2023/03/15 06:37:44;;;;;;;3.67;0.67;;;3.10;99.90;;;;;;5047326;28;20114;-48
2023/03/15 06:40:10;;;;;;;6.20;0.80;;;3.10;99.90;;;;;;5046947;28;20765;-48
2023/03/15 06:42:37;;;;;;;5.32;0.68;;;3.00;99.90;;;;;;5042993;28;20102;-48
2023/03/15 06:45:04;;;;;;;8.98;0.70;;;2.90;99.90;;;;;;5034292;28;20372;-48
2023/03/15 06:47:30;;;;;;;8.02;0.70;;;2.70;99.90;;;;;;5032965;28;20080;-48
2023/03/15 06:49:55;;;;;;;7.67;1.80;;;2.60;99.90;;;;;;5040367;28;20057;-47
2023/03/15 06:52:21;;;;;;;6.40;0.77;;;2.50;99.90;;;;;;5037935;28;20045;-48
2023/03/15 06:54:47;;;;;;;6.80;0.90;;;2.50;99.90;;;;;;5041650;28;20052;-48
2023/03/15 06:57:12;;;;;;;4.67;0.67;;;2.70;99.90;;;;;;5043922;28;20487;-49
2023/03/15 06:59:38;;;;;;;4.50;0.40;;;3.20;99.90;;;;;;5047751;28;20033;-48
2023/03/15 07:02:03;;;;;;;7.27;0.70;;;3.60;99.90;;;;;;5047007;28;20481;-48
2023/03/15 07:04:30;;;;;;;8.68;1.20;;;3.90;99.90;;;;;;5046659;28;20032;-49
2023/03/15 07:06:55;;;;;;;5.63;0.82;;;4.00;99.90;;;;;;5048141;28;20049;-52
2023/03/15 07:09:21;;;;;;;4.47;0.90;;;4.10;99.90;;;;;;5043252;28;20040;-48
2023/03/15 07:11:46;;;;;;;7.50;0.90;;;4.10;99.90;;;;;;5046457;28;20033;-49
2023/03/15 07:14:12;;;;;;;6.57;0.70;;;4.10;99.90;;;;;;5043506;28;20041;-47
2023/03/15 07:16:38;;;;;;;3.97;0.70;;;4.00;99.90;;;;;;5039776;28;20767;-47
2023/03/15 07:19:03;;;;;;;5.00;0.50;;;3.90;99.90;;;;;;5040593;28;20033;-48
2023/03/15 07:21:29;;;;;;;8.37;0.93;;;3.80;99.90;;;;;;5041223;28;20428;-47
2023/03/15 07:23:55;;;;;;;7.07;1.63;;;3.70;99.90;;;;;;5039176;28;20045;-47
2023/03/15 07:26:20;;;;;;;3.13;0.77;;;3.70;99.90;;;;;;5042331;28;20041;-47
2023/03/15 07:28:46;;;;;;;4.30;0.83;;;3.70;99.90;;;;;;5044047;28;20135;-48
2023/03/15 07:31:12;;;;;;;3.33;0.40;;;3.70;99.90;;;;;;5040895;28;20053;-48
2023/03/15 07:33:38;;;;;;;6.25;0.90;;;3.60;99.90;;;;;;5038628;28;20500;-47
2023/03/15 07:36:05;;;;;;;5.45;0.52;;;3.70;99.90;;;;;;5042660;28;20033;-48
2023/03/15 07:38:31;;;;;;;7.97;1.23;;;3.70;99.90;;;;;;5042204;28;20083;-47
2023/03/15 07:41:00;;;;;;;5.65;0.70;;;3.70;99.90;;;;;;5042625;28;20038;-47
2023/03/15 07:43:25;;;;;;;8.60;0.77;;;3.80;99.90;;;;;;5044905;28;20146;-47
2023/03/15 07:45:51;;;;;;;11.10;0.93;;;3.80;99.90;;;;;;5038208;28;20124;-47
2023/03/15 07:48:17;;;;;;;1.87;0.40;;;3.80;99.90;;;;;;5040553;28;20037;-48
2023/03/15 07:50:43;;;;;;;5.00;0.70;;;3.80;99.90;;;;;;5047108;28;20124;-49
2023/03/15 07:53:09;;;;;;;7.43;1.05;;;3.80;99.90;;;;;;5045593;28;20033;-48
2023/03/15 07:55:35;;;;;;;3.60;0.83;;;3.90;99.90;;;;;;5041465;28;20036;-49
2023/03/15 07:58:01;;;;;;;7.85;1.50;;;3.90;99.90;;;;;;5039429;28;20068;-48
2023/03/15 08:00:28;;;;;;;3.88;0.60;;;4.00;99.90;;;;;;5030497;28;20041;-48
2023/03/15 08:02:53;;;;;;;7.30;0.70;;;4.00;99.90;;;;;;5034842;28;20060;-47
2023/03/15 08:05:19;;;;;;;7.57;0.83;;;4.10;99.90;;;;;;5038339;28;20029;-47
2023/03/15 08:07:46;;;;;;;3.95;1.95;;;4.10;99.90;;;;;;5034774;28;20567;-49
2023/03/15 08:10:12;;;;;;;5.40;0.80;;;4.20;99.90;;;;;;5043293;28;20039;-48
2023/03/15 08:12:41;;;;;;;8.43;1.05;;;4.20;99.90;;;;;;5044102;28;20544;-48
2023/03/15 08:15:11;;;;;;;10.95;0.80;;;4.30;99.90;;;;;;5045659;28;20041;-49
2023/03/15 08:17:37;;;;;;;4.57;0.68;;;4.40;99.90;;;;;;5043824;28;20058;-47
2023/03/15 08:20:03;;;;;;;6.68;0.68;;;4.40;99.90;;;;;;5046084;28;20044;-48
2023/03/15 08:22:29;;;;;;;4.68;0.82;;;4.50;99.90;;;;;;5032777;28;20091;-48
2023/03/15 08:24:56;;;;;;;5.83;0.70;;;4.60;99.90;;;;;;5031209;28;20037;-49
2023/03/15 08:27:23;;;;;;;5.50;0.50;;;4.70;99.90;;;;;;5035269;28;20040;-49
2023/03/15 08:29:50;;;;;;;4.85;0.60;;;4.70;99.90;;;;;;5026944;28;20294;-47
2023/03/15 08:32:17;;;;;;;4.97;0.82;;;4.80;99.90;;;;;;5032186;28;20464;-49
2023/03/15 08:34:42;;;;;;;4.20;0.98;;;4.90;99.90;;;;;;5038627;28;20044;-47
2023/03/15 08:37:12;;;;;;;8.23;1.37;;;5.00;99.90;;;;;;5038953;28;20486;-48
2023/03/15 08:39:38;;;;;;;4.35;0.88;;;5.10;99.90;;;;;;5036453;28;20132;-48
2023/03/15 08:42:04;;;;;;;8.23;1.85;;;5.20;99.90;;;;;;5037144;28;20402;-48
2023/03/15 08:44:30;;;;;;;5.95;0.88;;;5.30;99.90;;;;;;5037724;28;20033;-48
2023/03/15 08:46:56;;;;;;;8.67;0.90;;;5.40;99.90;;;;;;5037718;28;20051;-48
2023/03/15 08:49:21;;;;;;;7.70;1.30;;;5.50;99.90;;;;;;5035998;28;20032;-48
2023/03/15 08:51:47;;;;;;;7.87;0.80;;;5.60;99.90;;;;;;5032624;28;20765;-48
2023/03/15 08:54:13;;;;;;;5.35;0.82;;;5.70;99.90;;;;;;5034201;28;20045;-47
2023/03/15 08:56:42;;;;;;;6.78;0.85;;;5.80;99.90;;;;;;5036541;28;20036;-48
2023/03/15 08:59:08;;;;;;;11.02;1.05;;;5.80;99.90;;;;;;5035612;28;20148;-48
2023/03/15 09:01:34;;;;;;;7.88;0.95;;;5.90;99.90;;;;;;5031117;28;20053;-48
2023/03/15 09:04:00;;;;;;;16.60;1.57;;;5.90;99.90;;;;;;5037647;28;20117;-50
2023/03/15 09:06:27;;;;;;;;;;;6.00;99.90;;;;;;5038514;28;20382;-48
2023/03/15 09:08:53;;;;;;;12.80;3.13;;;6.10;99.90;;;;;;5035163;28;20366;-48
2023/03/15 09:11:20;;;;;;;13.25;1.75;;;6.10;99.90;;;;;;5033940;28;20465;-48
2023/03/15 09:13:45;;;;;;;9.63;1.13;;;6.20;99.90;;;;;;5040494;28;20187;-49
2023/03/15 09:16:11;;;;;;;9.87;0.90;;;6.30;99.90;;;;;;5035850;28;20033;-48
2023/03/15 09:18:36;;;;;;;10.83;1.63;;;6.40;99.90;;;;;;5039521;28;20040;-47
2023/03/15 09:21:04;;;;;;;9.23;1.27;;;6.40;99.90;;;;;;5041257;28;20028;-48
2023/03/15 09:23:29;;;;;;;8.10;1.05;;;6.50;99.90;;;;;;5038005;28;20033;-48
2023/03/15 09:25:55;;;;;;;13.13;1.40;;;6.50;99.90;;;;;;5038942;28;20033;-47
2023/03/15 09:28:21;;;;;;;5.53;0.83;;;6.60;99.90;;;;;;5041038;28;20041;-51
2023/03/15 09:30:46;;;;;;;5.80;1.73;;;6.60;99.90;;;;;;5038535;28;20033;-49
2023/03/15 09:33:13;;;;;;;11.48;1.27;;;6.70;99.90;;;;;;5041297;28;20041;-48
2023/03/15 09:35:40;;;;;;;7.82;0.93;;;6.70;99.90;;;;;;5039785;28;20073;-49
2023/03/15 09:38:06;;;;;;;9.60;1.40;;;6.80;99.90;;;;;;5039214;28;20073;-48
2023/03/15 09:40:34;;;;;;;5.10;0.60;;;6.80;99.90;;;;;;5040347;28;20064;-48
2023/03/15 09:43:05;;;;;;;4.07;0.50;;;6.80;99.90;;;;;;5040708;28;20037;-48
2023/03/15 09:46:22;;;;;;;11.02;1.58;;;6.90;99.90;;;;;;5038279;28;20510;-48
2023/03/15 09:48:53;;;;;;;12.35;1.50;;;7.00;99.90;;;;;;5035357;28;20121;-48
2023/03/15 09:51:51;;;;;;;10.52;1.25;;;7.20;99.90;;;;;;5037841;28;20037;-48
2023/03/15 09:54:35;;;;;;;8.13;0.95;;;7.40;99.90;;;;;;5027503;28;20049;-47
2023/03/15 09:57:04;;;;;;;8.48;1.42;;;7.50;99.90;;;;;;5033954;28;20037;-48
2023/03/15 09:59:43;;;;;;;4.50;0.70;;;7.70;99.90;;;;;;5040767;28;20534;-49
2023/03/15 10:02:28;;;;;;;2.80;0.40;;;7.80;99.90;;;;;;5038241;28;20068;-48
2023/03/15 10:05:05;;;;;;;9.82;0.60;;;8.00;99.90;;;;;;5038273;28;20041;-49
2023/03/15 10:07:31;;;;;;;7.45;0.70;;;8.10;99.90;;;;;;5038437;28;20116;-48
2023/03/15 10:09:57;;;;;;;7.05;0.57;;;8.10;99.90;;;;;;5037964;28;20090;-51
2023/03/15 10:12:28;;;;;;;;;;;8.10;99.90;;;;;;5035032;28;20510;-49
2023/03/15 10:15:12;;;;;;;6.90;0.60;;;8.20;99.90;;;;;;5039011;28;20389;-49
2023/03/15 10:17:50;;;;;;;5.63;0.30;;;8.30;99.90;;;;;;5032439;28;20082;-49
2023/03/15 10:20:33;;;;;;;11.98;1.33;;;8.40;99.90;;;;;;5037514;28;20414;-48
2023/03/15 10:23:15;;;;;;;5.25;0.40;;;8.30;99.90;;;;;;5038808;28;20033;-49
2023/03/15 10:25:41;;;;;;;3.42;0.57;;;8.40;99.90;;;;;;5042185;28;20033;-49
2023/03/15 10:28:07;;;;;;;2.13;0.70;;;8.50;99.90;;;;;;5042388;28;20045;-47
2023/03/15 10:30:36;;;;;;;5.63;0.30;;;8.50;99.90;;;;;;5036913;28;20048;-48
2023/03/15 10:33:31;;;;;;;3.42;0.40;;;8.60;99.90;;;;;;5043485;28;20521;-49
2023/03/15 10:35:57;;;;;;;6.40;0.40;;;8.40;98.50;;;;;;5039398;28;20041;-49
2023/03/15 10:38:24;;;;;;;9.07;2.13;;;8.30;99.20;;;;;;5038844;28;20061;-50
2023/03/15 10:40:56;;;;;;;5.78;0.75;;;8.30;99.90;;;;;;5045708;28;20048;-48
2023/03/15 10:43:23;;;;;;;7.22;0.95;;;8.30;99.90;;;;;;5043393;28;20041;-48
2023/03/15 10:46:05;;;;;;;2.55;0.90;;;8.40;99.90;;;;;;5043869;28;20381;-48
2023/03/15 10:48:36;;;;;;;5.97;0.50;;;8.50;99.60;;;;;;5033731;28;20233;-48
2023/03/15 10:51:22;;;;;;;5.60;0.30;;;8.70;97.90;;;;;;5040867;28;20043;-49
2023/03/15 10:53:57;;;;;;;7.70;0.73;;;8.80;98.80;;;;;;5040267;28;20029;-49
2023/03/15 10:56:33;;;;;;;4.05;0.40;;;9.00;99.30;;;;;;5041322;28;20037;-47
2023/03/15 10:59:00;;;;;;;5.40;0.50;;;9.10;99.30;;;;;;5039153;28;20410;-49
2023/03/15 11:01:33;;;;;;;12.25;0.40;;;9.20;98.30;;;;;;5043257;28;20049;-50
2023/03/15 11:04:25;;;;;;;2.35;0.47;;;9.30;99.30;;;;;;5041833;28;20048;-49
2023/03/15 11:06:57;;;;;;;3.90;0.40;;;9.40;97.70;;;;;;5040234;28;20044;-49
2023/03/15 11:09:25;;;;;;;4.47;0.95;;;9.50;98.00;;;;;;5041466;28;20053;-49
2023/03/15 11:12:01;;;;;;;2.05;0.50;;;9.60;97.40;;;;;;5044964;28;20147;-48
2023/03/15 11:14:32;;;;;;;6.10;0.60;;;9.50;95.50;;;;;;5043537;28;20051;-49
2023/03/15 11:17:01;;;;;;;4.32;0.95;;;9.50;95.70;;;;;;5040930;28;20345;-48
2023/03/15 11:19:30;;;;;;;1.70;0.43;;;9.40;94.30;;;;;;5041483;28;20041;-48
2023/03/15 11:21:58;;;;;;;4.90;0.95;;;9.30;94.90;;;;;;5043797;28;20041;-48
2023/03/15 11:24:28;;;;;;;5.50;0.40;;;9.20;93.80;;;;;;5043122;28;20045;-48
2023/03/15 11:26:57;;;;;;;5.28;0.90;;;9.00;93.60;;;;;;5045128;28;20483;-48
2023/03/15 11:29:33;;;;;;;6.05;0.57;;;9.10;95.90;;;;;;5044363;28;20087;-48
2023/03/15 11:32:02;;;;;;;4.55;0.50;;;9.10;94.50;;;;;;5042315;28;20388;-48
2023/03/15 11:34:45;;;;;;;5.43;0.30;;;9.20;96.30;;;;;;5034921;28;20041;-48
2023/03/15 11:37:23;;;;;;;3.88;0.50;;;9.40;94.70;;;;;;5034773;28;20395;-48
2023/03/15 11:40:12;;;;;;;7.70;0.43;;;9.50;95.00;;;;;;5032668;28;20862;-49
2023/03/15 11:43:16;;;;;;;6.28;1.13;;;9.50;94.90;;;;;;5033754;28;20029;-48
2023/03/15 11:45:51;;;;;;;3.70;0.30;;;9.50;95.40;;;;;;5034877;28;20086;-49
2023/03/15 11:48:30;;;;;;;8.77;0.80;;;9.60;95.60;;;;;;5035531;28;20037;-50
2023/03/15 11:50:56;;;;;;;9.63;0.77;;;9.60;94.50;;;;;;5032865;28;20192;-50
2023/03/15 11:53:26;;;;;;;10.65;0.70;;;9.70;94.60;;;;;;5030456;28;20470;-49
2023/03/15 11:55:53;;;;;;;5.00;0.60;;;9.70;94.50;;;;;;5033166;28;20096;-51
2023/03/15 11:58:41;;;;;;;3.15;0.50;;;9.60;94.20;;;;;;5028623;28;20499;-50
2023/03/15 12:01:09;;;;;;;4.68;0.30;;;9.50;94.40;;;;;;5038540;28;20045;-49
2023/03/15 12:03:41;;;;;;;3.78;0.30;;;9.40;94.30;;;;;;5031326;28;20041;-51
2023/03/15 12:06:15;;;;;;;2.53;0.50;;;9.30;94.10;;;;;;5031609;28;20033;-49
2023/03/15 12:08:42;;;;;;;5.65;0.90;;;9.20;93.60;;;;;;5036831;28;20410;-49
2023/03/15 12:11:20;;;;;;;3.17;0.55;;;9.20;93.90;;;;;;5037942;28;20124;-49
2023/03/15 12:13:58;;;;;;;4.93;0.98;;;9.20;94.00;;;;;;5038759;28;20032;-50
2023/03/15 12:16:30;;;;;;;3.67;0.50;;;9.20;93.90;;;;;;5035594;28;20063;-49
2023/03/15 12:19:09;;;;;;;2.67;0.30;;;9.20;94.10;;;;;;5036998;28;20037;-49
2023/03/15 12:21:40;;;;;;;5.60;0.90;;;9.10;93.70;;;;;;5031338;28;20407;-49
2023/03/15 12:24:14;;;;;;;1.92;0.50;;;8.90;94.10;;;;;;5040902;28;20041;-49
2023/03/15 12:26:57;;;;;;;2.55;0.30;;;8.90;94.70;;;;;;5032951;28;20041;-49
2023/03/15 12:29:28;;;;;;;1.98;0.30;;;8.90;94.20;;;;;;5038338;28;20041;-51
2023/03/15 12:31:54;;;;;;;3.38;0.80;;;8.90;93.20;;;;;;5034156;28;20091;-53
2023/03/15 12:34:48;;;;;;;4.10;0.63;;;8.90;92.70;;;;;;5035539;28;20393;-49
2023/03/15 12:37:40;;;;;;;2.72;0.75;;;8.90;93.70;;;;;;5024957;28;20097;-49
2023/03/15 12:40:15;;;;;;;4.18;0.50;;;8.90;93.50;;;;;;5030839;28;20124;-49
2023/03/15 12:42:41;;;;;;;1.65;0.35;;;9.00;93.60;;;;;;5036085;28;20111;-50
2023/03/15 12:45:15;;;;;;;4.07;0.67;;;9.10;93.40;;;;;;5038726;28;20047;-49
2023/03/15 12:47:50;;;;;;;3.50;0.50;;;9.30;93.20;;;;;;5037769;28;20049;-50
2023/03/15 12:50:44;;;;;;;8.55;0.50;;;9.50;93.50;;;;;;5038150;28;20045;-49
2023/03/15 12:53:28;;;;;;;2.25;0.20;;;9.70;92.50;;;;;;5039319;28;20037;-50
2023/03/15 12:55:55;;;;;;;4.68;0.30;;;9.70;92.40;;;;;;5036442;28;20486;-49
2023/03/15 12:58:28;;;;;;;3.35;0.38;;;9.70;91.20;;;;;;5036653;28;20207;-50
2023/03/15 13:00:54;;;;;;;4.18;0.70;;;9.80;92.00;;;;;;5035909;28;20045;-49
2023/03/15 13:03:24;;;;;;;4.30;0.52;;;9.80;90.30;;;;;;5038230;28;20037;-49
2023/03/15 13:06:23;;;;;;;6.47;0.32;;;9.80;90.00;;;;;;5034405;28;20037;-50
2023/03/15 13:09:08;;;;;;;6.75;0.40;;;9.80;91.10;;;;;;5032610;28;20501;-50